sensor_id;sensor_type;location;lat;lon;timestamp;P1;durP1;ratioP1;P2;durP2;ratioP2
17177;SDS011;8704;52.006;4.374;2023-06-04T00:00:01;3.40;;;1.90;;
17177;SDS011;8704;52.006;4.374;2023-06-04T00:02:30;4.57;;;2.03;;
17177;SDS011;8704;52.006;4.374;2023-06-04T00:04:58;3.25;;;1.77;;
17177;SDS011;8704;52.006;4.374;2023-06-04T00:07:27;3.78;;;2.03;;
17177;SDS011;8704;52.006;4.374;2023-06-04T00:09:56;3.53;;;1.70;;
17177;SDS011;8704;52.006;4.374;2023-06-04T00:12:25;3.53;;;1.90;;
17177;SDS011;8704;52.006;4.374;2023-06-04T00:14:54;3.72;;;1.90;;
17177;SDS011;8704;52.006;4.374;2023-06-04T00:17:22;4.63;;;2.00;;
17177;SDS011;8704;52.006;4.374;2023-06-04T00:19:50;3.53;;;1.98;;
17177;SDS011;8704;52.006;4.374;2023-06-04T00:22:18;2.67;;;1.67;;
17177;SDS011;8704;52.006;4.374;2023-06-04T00:24:47;2.92;;;1.67;;
17177;SDS011;8704;52.006;4.374;2023-06-04T00:27:15;4.97;;;1.90;;
17177;SDS011;8704;52.006;4.374;2023-06-04T00:29:45;4.93;;;1.60;;
17177;SDS011;8704;52.006;4.374;2023-06-04T00:32:13;3.55;;;1.83;;
17177;SDS011;8704;52.006;4.374;2023-06-04T00:34:42;4.32;;;1.95;;
17177;SDS011;8704;52.006;4.374;2023-06-04T00:37:10;3.80;;;1.70;;
17177;SDS011;8704;52.006;4.374;2023-06-04T00:39:38;3.20;;;1.85;;
17177;SDS011;8704;52.006;4.374;2023-06-04T00:42:06;3.13;;;1.75;;
17177;SDS011;8704;52.006;4.374;2023-06-04T00:44:35;3.53;;;2.00;;
17177;SDS011;8704;52.006;4.374;2023-06-04T00:47:05;5.75;;;1.98;;
17177;SDS011;8704;52.006;4.374;2023-06-04T00:49:33;5.22;;;1.85;;
17177;SDS011;8704;52.006;4.374;2023-06-04T00:52:01;3.15;;;1.73;;
17177;SDS011;8704;52.006;4.374;2023-06-04T00:54:30;3.45;;;1.85;;
17177;SDS011;8704;52.006;4.374;2023-06-04T00:57:00;5.07;;;1.90;;
17177;SDS011;8704;52.006;4.374;2023-06-04T00:59:28;6.28;;;1.90;;
17177;SDS011;8704;52.006;4.374;2023-06-04T01:01:58;3.75;;;1.80;;
17177;SDS011;8704;52.006;4.374;2023-06-04T01:04:32;5.03;;;1.90;;
17177;SDS011;8704;52.006;4.374;2023-06-04T01:07:03;3.10;;;1.85;;
17177;SDS011;8704;52.006;4.374;2023-06-04T01:09:31;5.45;;;1.75;;
17177;SDS011;8704;52.006;4.374;2023-06-04T01:12:03;4.65;;;1.80;;
17177;SDS011;8704;52.006;4.374;2023-06-04T01:14:31;2.90;;;1.70;;
17177;SDS011;8704;52.006;4.374;2023-06-04T01:17:01;4.72;;;2.00;;
17177;SDS011;8704;52.006;4.374;2023-06-04T01:19:47;5.68;;;2.00;;
17177;SDS011;8704;52.006;4.374;2023-06-04T01:22:20;4.45;;;1.83;;
17177;SDS011;8704;52.006;4.374;2023-06-04T01:24:55;2.55;;;1.80;;
17177;SDS011;8704;52.006;4.374;2023-06-04T01:27:24;3.75;;;1.80;;
17177;SDS011;8704;52.006;4.374;2023-06-04T01:29:53;3.20;;;1.77;;
17177;SDS011;8704;52.006;4.374;2023-06-04T01:32:23;5.03;;;1.75;;
17177;SDS011;8704;52.006;4.374;2023-06-04T01:34:53;3.85;;;1.70;;
17177;SDS011;8704;52.006;4.374;2023-06-04T01:37:22;5.60;;;1.95;;
17177;SDS011;8704;52.006;4.374;2023-06-04T01:39:50;3.50;;;2.05;;
17177;SDS011;8704;52.006;4.374;2023-06-04T01:42:18;6.32;;;1.98;;
17177;SDS011;8704;52.006;4.374;2023-06-04T01:44:47;2.45;;;1.33;;
17177;SDS011;8704;52.006;4.374;2023-06-04T01:47:15;4.70;;;2.00;;
17177;SDS011;8704;52.006;4.374;2023-06-04T01:49:43;5.63;;;1.83;;
17177;SDS011;8704;52.006;4.374;2023-06-04T01:52:13;3.72;;;2.10;;
17177;SDS011;8704;52.006;4.374;2023-06-04T01:54:42;3.97;;;1.80;;
17177;SDS011;8704;52.006;4.374;2023-06-04T01:57:10;3.28;;;1.70;;
17177;SDS011;8704;52.006;4.374;2023-06-04T01:59:38;2.85;;;1.80;;
17177;SDS011;8704;52.006;4.374;2023-06-04T02:02:08;4.90;;;2.38;;
17177;SDS011;8704;52.006;4.374;2023-06-04T02:04:36;4.40;;;2.45;;
17177;SDS011;8704;52.006;4.374;2023-06-04T02:07:08;4.45;;;2.13;;
17177;SDS011;8704;52.006;4.374;2023-06-04T02:09:37;2.60;;;1.88;;
17177;SDS011;8704;52.006;4.374;2023-06-04T02:12:06;3.75;;;2.05;;
17177;SDS011;8704;52.006;4.374;2023-06-04T02:14:34;3.60;;;2.10;;
17177;SDS011;8704;52.006;4.374;2023-06-04T02:17:04;4.82;;;2.30;;
17177;SDS011;8704;52.006;4.374;2023-06-04T02:19:39;3.75;;;2.03;;
17177;SDS011;8704;52.006;4.374;2023-06-04T02:22:11;3.90;;;2.00;;
17177;SDS011;8704;52.006;4.374;2023-06-04T02:24:41;4.50;;;2.28;;
17177;SDS011;8704;52.006;4.374;2023-06-04T02:27:09;3.50;;;2.00;;
17177;SDS011;8704;52.006;4.374;2023-06-04T02:29:37;4.38;;;2.10;;
17177;SDS011;8704;52.006;4.374;2023-06-04T02:32:06;4.40;;;1.88;;
17177;SDS011;8704;52.006;4.374;2023-06-04T02:34:35;3.90;;;2.00;;
17177;SDS011;8704;52.006;4.374;2023-06-04T02:37:04;3.13;;;2.00;;
17177;SDS011;8704;52.006;4.374;2023-06-04T02:39:32;3.40;;;1.92;;
17177;SDS011;8704;52.006;4.374;2023-06-04T02:42:02;3.05;;;1.92;;
17177;SDS011;8704;52.006;4.374;2023-06-04T02:44:30;4.45;;;1.92;;
17177;SDS011;8704;52.006;4.374;2023-06-04T02:46:58;3.67;;;2.00;;
17177;SDS011;8704;52.006;4.374;2023-06-04T02:49:27;3.70;;;2.17;;
17177;SDS011;8704;52.006;4.374;2023-06-04T02:51:55;5.50;;;2.00;;
17177;SDS011;8704;52.006;4.374;2023-06-04T02:54:23;3.97;;;2.10;;
17177;SDS011;8704;52.006;4.374;2023-06-04T02:56:52;5.40;;;1.90;;
17177;SDS011;8704;52.006;4.374;2023-06-04T02:59:21;3.70;;;1.95;;
17177;SDS011;8704;52.006;4.374;2023-06-04T03:01:50;3.47;;;1.85;;
17177;SDS011;8704;52.006;4.374;2023-06-04T03:04:18;3.08;;;1.92;;
17177;SDS011;8704;52.006;4.374;2023-06-04T03:06:46;2.97;;;1.88;;
17177;SDS011;8704;52.006;4.374;2023-06-04T03:09:24;4.70;;;2.08;;
17177;SDS011;8704;52.006;4.374;2023-06-04T03:11:52;4.43;;;1.83;;
17177;SDS011;8704;52.006;4.374;2023-06-04T03:14:22;3.92;;;2.20;;
17177;SDS011;8704;52.006;4.374;2023-06-04T03:16:59;4.78;;;1.88;;
17177;SDS011;8704;52.006;4.374;2023-06-04T03:19:34;4.07;;;1.52;;
17177;SDS011;8704;52.006;4.374;2023-06-04T03:22:04;4.35;;;1.90;;
17177;SDS011;8704;52.006;4.374;2023-06-04T03:24:33;3.05;;;1.70;;
17177;SDS011;8704;52.006;4.374;2023-06-04T03:27:02;3.40;;;1.90;;
17177;SDS011;8704;52.006;4.374;2023-06-04T03:29:32;2.85;;;1.65;;
17177;SDS011;8704;52.006;4.374;2023-06-04T03:32:01;2.67;;;1.52;;
17177;SDS011;8704;52.006;4.374;2023-06-04T03:34:29;3.05;;;1.70;;
17177;SDS011;8704;52.006;4.374;2023-06-04T03:37:01;5.63;;;1.90;;
17177;SDS011;8704;52.006;4.374;2023-06-04T03:39:29;6.68;;;1.90;;
17177;SDS011;8704;52.006;4.374;2023-06-04T03:41:58;2.72;;;1.60;;
17177;SDS011;8704;52.006;4.374;2023-06-04T03:44:26;2.78;;;1.50;;
17177;SDS011;8704;52.006;4.374;2023-06-04T03:46:56;5.50;;;1.40;;
17177;SDS011;8704;52.006;4.374;2023-06-04T03:49:25;3.85;;;1.55;;
17177;SDS011;8704;52.006;4.374;2023-06-04T03:51:53;4.68;;;1.60;;
17177;SDS011;8704;52.006;4.374;2023-06-04T03:54:22;4.15;;;1.60;;
17177;SDS011;8704;52.006;4.374;2023-06-04T03:56:50;3.30;;;1.55;;
17177;SDS011;8704;52.006;4.374;2023-06-04T03:59:18;3.10;;;1.70;;
17177;SDS011;8704;52.006;4.374;2023-06-04T04:01:47;2.78;;;1.52;;
17177;SDS011;8704;52.006;4.374;2023-06-04T04:04:16;3.60;;;1.60;;
17177;SDS011;8704;52.006;4.374;2023-06-04T04:06:45;3.60;;;1.75;;
17177;SDS011;8704;52.006;4.374;2023-06-04T04:09:13;3.63;;;1.58;;
17177;SDS011;8704;52.006;4.374;2023-06-04T04:11:41;5.45;;;1.63;;
17177;SDS011;8704;52.006;4.374;2023-06-04T04:14:10;2.88;;;1.50;;
17177;SDS011;8704;52.006;4.374;2023-06-04T04:16:38;3.67;;;1.83;;
17177;SDS011;8704;52.006;4.374;2023-06-04T04:19:06;4.95;;;1.83;;
17177;SDS011;8704;52.006;4.374;2023-06-04T04:21:36;2.90;;;1.58;;
17177;SDS011;8704;52.006;4.374;2023-06-04T04:24:04;2.70;;;1.70;;
17177;SDS011;8704;52.006;4.374;2023-06-04T04:26:33;2.65;;;1.40;;
17177;SDS011;8704;52.006;4.374;2023-06-04T04:29:01;4.28;;;1.30;;
17177;SDS011;8704;52.006;4.374;2023-06-04T04:31:30;3.83;;;1.70;;
17177;SDS011;8704;52.006;4.374;2023-06-04T04:33:58;3.13;;;1.73;;
17177;SDS011;8704;52.006;4.374;2023-06-04T04:36:36;3.55;;;1.73;;
17177;SDS011;8704;52.006;4.374;2023-06-04T04:39:06;4.13;;;1.58;;
17177;SDS011;8704;52.006;4.374;2023-06-04T04:41:34;2.85;;;1.50;;
17177;SDS011;8704;52.006;4.374;2023-06-04T04:44:03;3.50;;;1.63;;
17177;SDS011;8704;52.006;4.374;2023-06-04T04:46:32;3.53;;;1.70;;
17177;SDS011;8704;52.006;4.374;2023-06-04T04:49:00;3.00;;;1.40;;
17177;SDS011;8704;52.006;4.374;2023-06-04T04:51:28;4.00;;;1.80;;
17177;SDS011;8704;52.006;4.374;2023-06-04T04:53:58;3.03;;;1.40;;
17177;SDS011;8704;52.006;4.374;2023-06-04T04:56:27;2.88;;;1.35;;
17177;SDS011;8704;52.006;4.374;2023-06-04T04:58:56;4.65;;;1.55;;
17177;SDS011;8704;52.006;4.374;2023-06-04T05:01:24;3.63;;;1.50;;
17177;SDS011;8704;52.006;4.374;2023-06-04T05:03:52;3.60;;;1.63;;
17177;SDS011;8704;52.006;4.374;2023-06-04T05:06:21;5.40;;;1.73;;
17177;SDS011;8704;52.006;4.374;2023-06-04T05:08:49;4.10;;;1.58;;
17177;SDS011;8704;52.006;4.374;2023-06-04T05:11:19;4.47;;;1.60;;
17177;SDS011;8704;52.006;4.374;2023-06-04T05:13:48;4.70;;;1.33;;
17177;SDS011;8704;52.006;4.374;2023-06-04T05:16:16;2.70;;;1.60;;
17177;SDS011;8704;52.006;4.374;2023-06-04T05:18:47;2.58;;;1.48;;
17177;SDS011;8704;52.006;4.374;2023-06-04T05:21:17;6.82;;;1.67;;
17177;SDS011;8704;52.006;4.374;2023-06-04T05:23:46;3.80;;;1.55;;
17177;SDS011;8704;52.006;4.374;2023-06-04T05:26:15;3.78;;;1.50;;
17177;SDS011;8704;52.006;4.374;2023-06-04T05:28:45;4.97;;;1.40;;
17177;SDS011;8704;52.006;4.374;2023-06-04T05:31:13;3.13;;;1.60;;
17177;SDS011;8704;52.006;4.374;2023-06-04T05:33:44;2.95;;;1.40;;
17177;SDS011;8704;52.006;4.374;2023-06-04T05:36:14;2.63;;;1.40;;
17177;SDS011;8704;52.006;4.374;2023-06-04T05:38:42;6.78;;;1.60;;
17177;SDS011;8704;52.006;4.374;2023-06-04T05:41:10;3.40;;;1.80;;
17177;SDS011;8704;52.006;4.374;2023-06-04T05:43:39;4.10;;;1.52;;
17177;SDS011;8704;52.006;4.374;2023-06-04T05:46:11;5.85;;;1.75;;
17177;SDS011;8704;52.006;4.374;2023-06-04T05:48:40;3.80;;;1.77;;
17177;SDS011;8704;52.006;4.374;2023-06-04T05:51:08;6.25;;;1.55;;
17177;SDS011;8704;52.006;4.374;2023-06-04T05:53:36;4.65;;;2.00;;
17177;SDS011;8704;52.006;4.374;2023-06-04T05:56:05;3.80;;;1.98;;
17177;SDS011;8704;52.006;4.374;2023-06-04T05:58:33;4.72;;;1.70;;
17177;SDS011;8704;52.006;4.374;2023-06-04T06:01:02;4.35;;;1.38;;
17177;SDS011;8704;52.006;4.374;2023-06-04T06:03:32;4.35;;;1.60;;
17177;SDS011;8704;52.006;4.374;2023-06-04T06:06:01;2.92;;;1.30;;
17177;SDS011;8704;52.006;4.374;2023-06-04T06:08:32;4.15;;;1.50;;
17177;SDS011;8704;52.006;4.374;2023-06-04T06:11:00;3.05;;;1.40;;
17177;SDS011;8704;52.006;4.374;2023-06-04T06:13:35;3.40;;;1.42;;
17177;SDS011;8704;52.006;4.374;2023-06-04T06:16:03;2.95;;;1.35;;
17177;SDS011;8704;52.006;4.374;2023-06-04T06:18:33;4.43;;;1.52;;
17177;SDS011;8704;52.006;4.374;2023-06-04T06:21:01;3.65;;;1.40;;
17177;SDS011;8704;52.006;4.374;2023-06-04T06:23:30;3.83;;;1.30;;
17177;SDS011;8704;52.006;4.374;2023-06-04T06:25:58;4.35;;;1.40;;
17177;SDS011;8704;52.006;4.374;2023-06-04T06:28:28;3.65;;;1.38;;
17177;SDS011;8704;52.006;4.374;2023-06-04T06:30:56;4.30;;;1.50;;
17177;SDS011;8704;52.006;4.374;2023-06-04T06:33:24;6.28;;;1.67;;
17177;SDS011;8704;52.006;4.374;2023-06-04T06:35:54;4.03;;;1.40;;
17177;SDS011;8704;52.006;4.374;2023-06-04T06:38:22;3.53;;;1.33;;
17177;SDS011;8704;52.006;4.374;2023-06-04T06:40:51;3.58;;;1.33;;
17177;SDS011;8704;52.006;4.374;2023-06-04T06:43:20;5.68;;;1.30;;
17177;SDS011;8704;52.006;4.374;2023-06-04T06:45:48;4.13;;;1.15;;
17177;SDS011;8704;52.006;4.374;2023-06-04T06:48:17;4.38;;;1.55;;
17177;SDS011;8704;52.006;4.374;2023-06-04T06:50:45;3.65;;;1.25;;
17177;SDS011;8704;52.006;4.374;2023-06-04T06:53:15;3.78;;;1.20;;
17177;SDS011;8704;52.006;4.374;2023-06-04T06:55:43;3.10;;;1.10;;
17177;SDS011;8704;52.006;4.374;2023-06-04T06:58:11;3.60;;;1.50;;
17177;SDS011;8704;52.006;4.374;2023-06-04T07:00:39;5.15;;;1.25;;
17177;SDS011;8704;52.006;4.374;2023-06-04T07:03:08;4.20;;;1.20;;
17177;SDS011;8704;52.006;4.374;2023-06-04T07:05:36;3.28;;;1.10;;
17177;SDS011;8704;52.006;4.374;2023-06-04T07:08:04;3.00;;;1.27;;
17177;SDS011;8704;52.006;4.374;2023-06-04T07:10:34;2.58;;;1.20;;
17177;SDS011;8704;52.006;4.374;2023-06-04T07:13:03;6.85;;;1.45;;
17177;SDS011;8704;52.006;4.374;2023-06-04T07:15:31;2.95;;;1.17;;
17177;SDS011;8704;52.006;4.374;2023-06-04T07:17:59;3.10;;;1.17;;
17177;SDS011;8704;52.006;4.374;2023-06-04T07:20:28;3.53;;;1.20;;
17177;SDS011;8704;52.006;4.374;2023-06-04T07:22:56;4.45;;;1.33;;
17177;SDS011;8704;52.006;4.374;2023-06-04T07:25:25;3.72;;;1.25;;
17177;SDS011;8704;52.006;4.374;2023-06-04T07:27:54;4.35;;;1.23;;
17177;SDS011;8704;52.006;4.374;2023-06-04T07:30:24;3.13;;;1.20;;
17177;SDS011;8704;52.006;4.374;2023-06-04T07:32:52;3.72;;;1.40;;
17177;SDS011;8704;52.006;4.374;2023-06-04T07:35:21;5.20;;;1.38;;
17177;SDS011;8704;52.006;4.374;2023-06-04T07:37:49;5.85;;;1.45;;
17177;SDS011;8704;52.006;4.374;2023-06-04T07:40:17;2.80;;;1.15;;
17177;SDS011;8704;52.006;4.374;2023-06-04T07:42:46;4.25;;;1.35;;
17177;SDS011;8704;52.006;4.374;2023-06-04T07:45:17;5.57;;;1.25;;
17177;SDS011;8704;52.006;4.374;2023-06-04T07:47:45;3.65;;;1.38;;
17177;SDS011;8704;52.006;4.374;2023-06-04T07:50:14;3.00;;;1.10;;
17177;SDS011;8704;52.006;4.374;2023-06-04T07:52:42;4.00;;;1.55;;
17177;SDS011;8704;52.006;4.374;2023-06-04T07:55:10;4.22;;;1.60;;
17177;SDS011;8704;52.006;4.374;2023-06-04T07:57:39;3.65;;;1.33;;
17177;SDS011;8704;52.006;4.374;2023-06-04T08:00:08;4.47;;;1.30;;
17177;SDS011;8704;52.006;4.374;2023-06-04T08:02:39;4.45;;;1.60;;
17177;SDS011;8704;52.006;4.374;2023-06-04T08:05:07;7.65;;;1.58;;
17177;SDS011;8704;52.006;4.374;2023-06-04T08:07:36;5.00;;;1.75;;
17177;SDS011;8704;52.006;4.374;2023-06-04T08:10:05;5.22;;;1.70;;
17177;SDS011;8704;52.006;4.374;2023-06-04T08:12:33;4.28;;;1.67;;
17177;SDS011;8704;52.006;4.374;2023-06-04T08:15:02;3.50;;;1.70;;
17177;SDS011;8704;52.006;4.374;2023-06-04T08:17:31;7.40;;;1.70;;
17177;SDS011;8704;52.006;4.374;2023-06-04T08:20:01;5.25;;;1.70;;
17177;SDS011;8704;52.006;4.374;2023-06-04T08:25:00;3.83;;;1.50;;
17177;SDS011;8704;52.006;4.374;2023-06-04T08:27:29;4.40;;;1.58;;
17177;SDS011;8704;52.006;4.374;2023-06-04T08:29:58;4.70;;;1.65;;
17177;SDS011;8704;52.006;4.374;2023-06-04T08:32:27;4.63;;;1.38;;
17177;SDS011;8704;52.006;4.374;2023-06-04T08:34:55;3.53;;;1.40;;
17177;SDS011;8704;52.006;4.374;2023-06-04T08:37:25;4.63;;;1.60;;
17177;SDS011;8704;52.006;4.374;2023-06-04T08:39:53;5.13;;;1.38;;
17177;SDS011;8704;52.006;4.374;2023-06-04T08:42:22;3.25;;;1.20;;
17177;SDS011;8704;52.006;4.374;2023-06-04T08:44:50;5.13;;;1.40;;
17177;SDS011;8704;52.006;4.374;2023-06-04T08:47:19;3.28;;;1.00;;
17177;SDS011;8704;52.006;4.374;2023-06-04T08:49:49;2.97;;;1.20;;
17177;SDS011;8704;52.006;4.374;2023-06-04T08:52:18;4.88;;;1.33;;
17177;SDS011;8704;52.006;4.374;2023-06-04T08:54:49;4.25;;;1.42;;
17177;SDS011;8704;52.006;4.374;2023-06-04T08:57:18;5.45;;;1.50;;
17177;SDS011;8704;52.006;4.374;2023-06-04T08:59:47;3.90;;;1.50;;
17177;SDS011;8704;52.006;4.374;2023-06-04T09:02:16;4.13;;;1.40;;
17177;SDS011;8704;52.006;4.374;2023-06-04T09:04:44;4.75;;;1.25;;
17177;SDS011;8704;52.006;4.374;2023-06-04T09:07:13;4.97;;;1.40;;
17177;SDS011;8704;52.006;4.374;2023-06-04T09:09:42;3.88;;;1.50;;
17177;SDS011;8704;52.006;4.374;2023-06-04T09:12:23;2.90;;;1.40;;
17177;SDS011;8704;52.006;4.374;2023-06-04T09:14:51;5.47;;;1.77;;
17177;SDS011;8704;52.006;4.374;2023-06-04T09:17:22;3.90;;;1.70;;
17177;SDS011;8704;52.006;4.374;2023-06-04T09:19:51;6.43;;;1.70;;
17177;SDS011;8704;52.006;4.374;2023-06-04T09:22:30;3.15;;;1.67;;
17177;SDS011;8704;52.006;4.374;2023-06-04T09:24:59;5.22;;;1.52;;
17177;SDS011;8704;52.006;4.374;2023-06-04T09:27:36;4.57;;;1.60;;
17177;SDS011;8704;52.006;4.374;2023-06-04T09:30:05;4.30;;;1.60;;
17177;SDS011;8704;52.006;4.374;2023-06-04T09:32:34;4.43;;;1.50;;
17177;SDS011;8704;52.006;4.374;2023-06-04T09:35:09;4.40;;;1.85;;
17177;SDS011;8704;52.006;4.374;2023-06-04T09:37:39;4.32;;;1.70;;
17177;SDS011;8704;52.006;4.374;2023-06-04T09:40:08;4.30;;;1.50;;
17177;SDS011;8704;52.006;4.374;2023-06-04T09:42:44;4.18;;;1.50;;
17177;SDS011;8704;52.006;4.374;2023-06-04T09:45:12;5.15;;;1.50;;
17177;SDS011;8704;52.006;4.374;2023-06-04T09:47:41;4.90;;;1.45;;
17177;SDS011;8704;52.006;4.374;2023-06-04T09:50:10;4.63;;;1.70;;
17177;SDS011;8704;52.006;4.374;2023-06-04T09:52:39;4.43;;;1.65;;
17177;SDS011;8704;52.006;4.374;2023-06-04T09:55:16;5.57;;;1.75;;
17177;SDS011;8704;52.006;4.374;2023-06-04T09:57:50;6.30;;;2.13;;
17177;SDS011;8704;52.006;4.374;2023-06-04T10:00:19;3.33;;;1.52;;
17177;SDS011;8704;52.006;4.374;2023-06-04T10:02:49;5.88;;;1.77;;
17177;SDS011;8704;52.006;4.374;2023-06-04T10:05:17;4.97;;;1.60;;
17177;SDS011;8704;52.006;4.374;2023-06-04T10:07:48;5.38;;;1.45;;
17177;SDS011;8704;52.006;4.374;2023-06-04T10:10:19;5.28;;;1.30;;
17177;SDS011;8704;52.006;4.374;2023-06-04T10:12:48;4.82;;;1.50;;
17177;SDS011;8704;52.006;4.374;2023-06-04T10:15:19;3.58;;;1.48;;
17177;SDS011;8704;52.006;4.374;2023-06-04T10:17:48;4.43;;;2.00;;
17177;SDS011;8704;52.006;4.374;2023-06-04T10:20:17;2.95;;;1.50;;
17177;SDS011;8704;52.006;4.374;2023-06-04T10:22:46;4.10;;;1.65;;
17177;SDS011;8704;52.006;4.374;2023-06-04T10:25:16;4.30;;;1.75;;
17177;SDS011;8704;52.006;4.374;2023-06-04T10:27:44;5.63;;;1.70;;
17177;SDS011;8704;52.006;4.374;2023-06-04T10:30:13;7.15;;;1.60;;
17177;SDS011;8704;52.006;4.374;2023-06-04T10:32:43;4.50;;;1.70;;
17177;SDS011;8704;52.006;4.374;2023-06-04T10:35:11;4.07;;;1.60;;
17177;SDS011;8704;52.006;4.374;2023-06-04T10:37:41;4.63;;;1.55;;
17177;SDS011;8704;52.006;4.374;2023-06-04T10:40:09;4.53;;;1.40;;
17177;SDS011;8704;52.006;4.374;2023-06-04T10:42:38;3.20;;;1.27;;
17177;SDS011;8704;52.006;4.374;2023-06-04T10:45:07;3.58;;;1.60;;
17177;SDS011;8704;52.006;4.374;2023-06-04T10:47:36;5.57;;;1.50;;
17177;SDS011;8704;52.006;4.374;2023-06-04T10:50:10;4.43;;;1.48;;
17177;SDS011;8704;52.006;4.374;2023-06-04T10:52:39;3.50;;;1.48;;
17177;SDS011;8704;52.006;4.374;2023-06-04T10:55:07;3.90;;;1.33;;
17177;SDS011;8704;52.006;4.374;2023-06-04T10:57:36;4.47;;;1.70;;
17177;SDS011;8704;52.006;4.374;2023-06-04T11:00:05;4.10;;;1.60;;
17177;SDS011;8704;52.006;4.374;2023-06-04T11:05:06;3.10;;;1.50;;
17177;SDS011;8704;52.006;4.374;2023-06-04T11:07:44;4.10;;;1.70;;
17177;SDS011;8704;52.006;4.374;2023-06-04T11:10:13;3.65;;;1.50;;
17177;SDS011;8704;52.006;4.374;2023-06-04T11:12:42;6.32;;;1.58;;
17177;SDS011;8704;52.006;4.374;2023-06-04T11:15:10;3.75;;;1.52;;
17177;SDS011;8704;52.006;4.374;2023-06-04T11:17:48;3.03;;;1.38;;
17177;SDS011;8704;52.006;4.374;2023-06-04T11:20:17;3.33;;;1.55;;
17177;SDS011;8704;52.006;4.374;2023-06-04T11:22:51;4.57;;;1.80;;
17177;SDS011;8704;52.006;4.374;2023-06-04T11:25:20;4.32;;;1.80;;
17177;SDS011;8704;52.006;4.374;2023-06-04T11:27:48;4.32;;;1.60;;
17177;SDS011;8704;52.006;4.374;2023-06-04T11:30:17;3.78;;;1.42;;
17177;SDS011;8704;52.006;4.374;2023-06-04T11:32:45;4.65;;;1.70;;
17177;SDS011;8704;52.006;4.374;2023-06-04T11:35:16;3.63;;;1.50;;
17177;SDS011;8704;52.006;4.374;2023-06-04T11:37:54;5.28;;;1.98;;
17177;SDS011;8704;52.006;4.374;2023-06-04T11:40:23;5.75;;;1.33;;
17177;SDS011;8704;52.006;4.374;2023-06-04T11:42:53;3.88;;;1.80;;
17177;SDS011;8704;52.006;4.374;2023-06-04T11:45:21;8.25;;;1.67;;
17177;SDS011;8704;52.006;4.374;2023-06-04T11:47:52;4.40;;;1.52;;
17177;SDS011;8704;52.006;4.374;2023-06-04T11:50:23;4.63;;;1.73;;
17177;SDS011;8704;52.006;4.374;2023-06-04T11:52:52;5.25;;;1.52;;
17177;SDS011;8704;52.006;4.374;2023-06-04T11:55:22;5.10;;;1.75;;
17177;SDS011;8704;52.006;4.374;2023-06-04T11:57:51;3.78;;;1.63;;
17177;SDS011;8704;52.006;4.374;2023-06-04T12:00:19;6.28;;;1.65;;
17177;SDS011;8704;52.006;4.374;2023-06-04T12:02:49;2.33;;;1.30;;
17177;SDS011;8704;52.006;4.374;2023-06-04T12:05:19;3.47;;;1.50;;
17177;SDS011;8704;52.006;4.374;2023-06-04T12:07:49;5.03;;;1.70;;
17177;SDS011;8704;52.006;4.374;2023-06-04T12:10:18;4.40;;;1.55;;
17177;SDS011;8704;52.006;4.374;2023-06-04T12:12:53;3.28;;;1.52;;
17177;SDS011;8704;52.006;4.374;2023-06-04T12:15:22;4.45;;;1.42;;
17177;SDS011;8704;52.006;4.374;2023-06-04T12:17:50;5.20;;;1.65;;
17177;SDS011;8704;52.006;4.374;2023-06-04T12:20:29;3.38;;;1.75;;
17177;SDS011;8704;52.006;4.374;2023-06-04T12:22:58;3.40;;;1.50;;
17177;SDS011;8704;52.006;4.374;2023-06-04T12:25:27;4.75;;;1.40;;
17177;SDS011;8704;52.006;4.374;2023-06-04T12:27:57;3.13;;;1.50;;
17177;SDS011;8704;52.006;4.374;2023-06-04T12:30:34;2.90;;;1.30;;
17177;SDS011;8704;52.006;4.374;2023-06-04T12:33:03;2.75;;;1.30;;
17177;SDS011;8704;52.006;4.374;2023-06-04T12:35:31;2.88;;;1.42;;
17177;SDS011;8704;52.006;4.374;2023-06-04T12:38:02;2.92;;;1.55;;
17177;SDS011;8704;52.006;4.374;2023-06-04T12:40:30;3.47;;;1.40;;
17177;SDS011;8704;52.006;4.374;2023-06-04T12:43:00;3.67;;;1.42;;
17177;SDS011;8704;52.006;4.374;2023-06-04T12:45:29;3.38;;;1.55;;
17177;SDS011;8704;52.006;4.374;2023-06-04T12:47:58;2.95;;;1.50;;
17177;SDS011;8704;52.006;4.374;2023-06-04T12:50:28;3.55;;;1.42;;
17177;SDS011;8704;52.006;4.374;2023-06-04T12:52:56;5.68;;;1.70;;
17177;SDS011;8704;52.006;4.374;2023-06-04T12:55:25;2.67;;;1.50;;
17177;SDS011;8704;52.006;4.374;2023-06-04T12:57:53;5.32;;;1.48;;
17177;SDS011;8704;52.006;4.374;2023-06-04T13:00:23;3.45;;;1.27;;
17177;SDS011;8704;52.006;4.374;2023-06-04T13:02:53;3.70;;;1.45;;
17177;SDS011;8704;52.006;4.374;2023-06-04T13:05:21;4.18;;;1.55;;
17177;SDS011;8704;52.006;4.374;2023-06-04T13:07:50;4.60;;;1.73;;
17177;SDS011;8704;52.006;4.374;2023-06-04T13:10:18;6.85;;;2.00;;
17177;SDS011;8704;52.006;4.374;2023-06-04T13:12:46;5.57;;;1.88;;
17177;SDS011;8704;52.006;4.374;2023-06-04T13:15:15;5.93;;;2.00;;
17177;SDS011;8704;52.006;4.374;2023-06-04T13:17:45;7.55;;;2.35;;
17177;SDS011;8704;52.006;4.374;2023-06-04T13:20:13;4.88;;;2.08;;
17177;SDS011;8704;52.006;4.374;2023-06-04T13:22:42;6.90;;;2.10;;
17177;SDS011;8704;52.006;4.374;2023-06-04T13:25:10;6.25;;;2.38;;
17177;SDS011;8704;52.006;4.374;2023-06-04T13:27:39;7.50;;;2.22;;
17177;SDS011;8704;52.006;4.374;2023-06-04T13:30:09;7.88;;;2.42;;
17177;SDS011;8704;52.006;4.374;2023-06-04T13:32:38;7.00;;;2.13;;
17177;SDS011;8704;52.006;4.374;2023-06-04T13:35:08;7.57;;;2.30;;
17177;SDS011;8704;52.006;4.374;2023-06-04T13:37:36;9.65;;;2.10;;
17177;SDS011;8704;52.006;4.374;2023-06-04T13:40:05;6.10;;;2.40;;
17177;SDS011;8704;52.006;4.374;2023-06-04T13:42:34;7.15;;;2.38;;
17177;SDS011;8704;52.006;4.374;2023-06-04T13:45:02;8.45;;;2.35;;
17177;SDS011;8704;52.006;4.374;2023-06-04T13:47:31;5.55;;;2.10;;
17177;SDS011;8704;52.006;4.374;2023-06-04T13:49:59;7.35;;;2.47;;
17177;SDS011;8704;52.006;4.374;2023-06-04T13:52:29;8.38;;;2.28;;
17177;SDS011;8704;52.006;4.374;2023-06-04T13:54:58;8.20;;;2.08;;
17177;SDS011;8704;52.006;4.374;2023-06-04T13:57:27;6.72;;;2.00;;
17177;SDS011;8704;52.006;4.374;2023-06-04T13:59:55;10.23;;;2.28;;
17177;SDS011;8704;52.006;4.374;2023-06-04T14:02:24;7.10;;;2.20;;
17177;SDS011;8704;52.006;4.374;2023-06-04T14:04:53;6.75;;;2.35;;
17177;SDS011;8704;52.006;4.374;2023-06-04T14:07:21;4.60;;;2.15;;
17177;SDS011;8704;52.006;4.374;2023-06-04T14:09:51;6.20;;;2.08;;
17177;SDS011;8704;52.006;4.374;2023-06-04T14:12:21;7.15;;;2.22;;
17177;SDS011;8704;52.006;4.374;2023-06-04T14:14:49;5.60;;;2.40;;
17177;SDS011;8704;52.006;4.374;2023-06-04T14:17:18;6.40;;;2.22;;
17177;SDS011;8704;52.006;4.374;2023-06-04T14:19:46;6.40;;;2.40;;
17177;SDS011;8704;52.006;4.374;2023-06-04T14:22:15;7.55;;;2.40;;
17177;SDS011;8704;52.006;4.374;2023-06-04T14:24:43;5.78;;;2.45;;
17177;SDS011;8704;52.006;4.374;2023-06-04T14:27:13;9.32;;;2.22;;
17177;SDS011;8704;52.006;4.374;2023-06-04T14:29:41;6.50;;;2.10;;
17177;SDS011;8704;52.006;4.374;2023-06-04T14:32:09;4.70;;;2.22;;
17177;SDS011;8704;52.006;4.374;2023-06-04T14:34:38;7.15;;;2.63;;
17177;SDS011;8704;52.006;4.374;2023-06-04T14:37:06;6.35;;;2.40;;
17177;SDS011;8704;52.006;4.374;2023-06-04T14:39:34;6.15;;;2.40;;
17177;SDS011;8704;52.006;4.374;2023-06-04T14:42:03;6.28;;;2.50;;
17177;SDS011;8704;52.006;4.374;2023-06-04T14:44:33;10.00;;;2.83;;
17177;SDS011;8704;52.006;4.374;2023-06-04T14:47:01;6.97;;;2.28;;
17177;SDS011;8704;52.006;4.374;2023-06-04T14:49:30;8.13;;;2.75;;
17177;SDS011;8704;52.006;4.374;2023-06-04T14:51:58;5.60;;;2.50;;
17177;SDS011;8704;52.006;4.374;2023-06-04T14:54:27;6.47;;;2.30;;
17177;SDS011;8704;52.006;4.374;2023-06-04T14:56:56;7.07;;;2.40;;
17177;SDS011;8704;52.006;4.374;2023-06-04T14:59:24;8.95;;;2.58;;
17177;SDS011;8704;52.006;4.374;2023-06-04T15:01:54;6.70;;;2.72;;
17177;SDS011;8704;52.006;4.374;2023-06-04T15:04:22;7.03;;;2.58;;
17177;SDS011;8704;52.006;4.374;2023-06-04T15:06:50;5.07;;;2.45;;
17177;SDS011;8704;52.006;4.374;2023-06-04T15:09:19;4.13;;;2.22;;
17177;SDS011;8704;52.006;4.374;2023-06-04T15:11:47;6.13;;;2.40;;
17177;SDS011;8704;52.006;4.374;2023-06-04T15:14:15;7.47;;;2.63;;
17177;SDS011;8704;52.006;4.374;2023-06-04T15:16:44;4.72;;;2.50;;